createdAt,value
2024-01-20T00:02:25.859Z,3.80
2024-01-20T00:04:52.767Z,3.30
2024-01-20T00:07:20.315Z,3.70
2024-01-20T00:09:51.128Z,3.50
2024-01-20T00:12:19.461Z,3.40
2024-01-20T00:14:46.440Z,3.30
2024-01-20T00:17:23.490Z,3.20
2024-01-20T00:19:54.449Z,3.80
2024-01-20T00:22:23.720Z,3.70
2024-01-20T00:24:51.002Z,3.70
2024-01-20T00:27:20.137Z,3.60
2024-01-20T00:29:47.146Z,3.70
2024-01-20T00:32:14.863Z,3.60
2024-01-20T00:34:51.631Z,3.70
2024-01-20T00:37:27.129Z,3.40
2024-01-20T00:39:53.808Z,3.80
2024-01-20T00:42:20.366Z,3.60
2024-01-20T00:44:46.863Z,3.50
2024-01-20T00:47:13.505Z,3.70
2024-01-20T00:49:40.385Z,3.60
2024-01-20T00:52:07.075Z,3.60
2024-01-20T00:54:33.718Z,3.50
2024-01-20T00:57:00.250Z,3.50
2024-01-20T00:59:26.789Z,3.40
2024-01-20T01:01:53.353Z,3.50
2024-01-20T01:04:20.575Z,3.70
2024-01-20T01:06:47.239Z,3.70
2024-01-20T01:09:13.745Z,3.40
2024-01-20T01:11:40.173Z,3.70
2024-01-20T01:14:06.746Z,3.60
2024-01-20T01:16:33.346Z,3.60
2024-01-20T01:19:00.078Z,3.40
2024-01-20T01:21:26.617Z,3.60
2024-01-20T01:23:53.272Z,3.20
2024-01-20T01:26:20.822Z,3.60
2024-01-20T01:28:47.478Z,3.30
2024-01-20T01:31:14.193Z,3.60
2024-01-20T01:33:40.881Z,3.50
2024-01-20T01:36:07.793Z,3.60
2024-01-20T01:38:34.400Z,3.40
2024-01-20T01:41:01.220Z,3.60
2024-01-20T01:43:28.186Z,3.80
2024-01-20T01:45:54.716Z,3.40
2024-01-20T01:48:21.847Z,3.70
2024-01-20T01:50:49.427Z,3.60
2024-01-20T01:53:15.957Z,3.50
2024-01-20T01:55:44.540Z,3.40
2024-01-20T01:58:11.173Z,3.70
2024-01-20T02:00:38.082Z,3.70
2024-01-20T02:03:05.103Z,3.30
2024-01-20T02:05:31.690Z,3.30
2024-01-20T02:07:58.431Z,3.50
2024-01-20T02:10:24.968Z,3.40
2024-01-20T02:12:51.706Z,3.40
2024-01-20T02:15:18.992Z,3.60
2024-01-20T02:17:55.748Z,3.40
2024-01-20T02:20:23.697Z,3.50
2024-01-20T02:22:50.439Z,3.20
2024-01-20T02:25:16.977Z,3.40
2024-01-20T02:27:43.508Z,3.60
2024-01-20T02:30:10.586Z,3.70
2024-01-20T02:32:37.436Z,3.50
2024-01-20T02:35:04.662Z,3.30
2024-01-20T02:37:31.476Z,3.90
2024-01-20T02:39:58.144Z,3.40
2024-01-20T02:42:24.763Z,4.00
2024-01-20T02:44:51.657Z,3.20
2024-01-20T02:47:18.639Z,3.40
2024-01-20T02:49:45.261Z,3.20
2024-01-20T02:52:11.934Z,3.50
2024-01-20T02:54:38.599Z,3.10
2024-01-20T02:57:05.420Z,3.50
2024-01-20T02:59:31.930Z,3.00
2024-01-20T03:01:59.076Z,3.50
2024-01-20T03:04:25.694Z,3.60
2024-01-20T03:06:52.263Z,3.70
2024-01-20T03:09:18.971Z,3.60
2024-01-20T03:11:45.735Z,3.20
2024-01-20T03:14:12.590Z,3.20
2024-01-20T03:16:39.425Z,3.80
2024-01-20T03:19:06.820Z,3.50
2024-01-20T03:21:34.677Z,3.40
2024-01-20T03:24:01.460Z,3.30
2024-01-20T03:26:28.314Z,3.60
2024-01-20T03:28:54.965Z,3.50
2024-01-20T03:31:21.488Z,3.50
2024-01-20T03:33:48.373Z,3.60
2024-01-20T03:36:15.251Z,3.50
2024-01-20T03:38:41.809Z,3.40
2024-01-20T03:41:08.346Z,3.60
2024-01-20T03:43:34.974Z,3.60
2024-01-20T03:46:01.631Z,3.30
2024-01-20T03:48:28.774Z,3.60
2024-01-20T03:50:55.664Z,3.30
2024-01-20T03:53:22.235Z,3.30
2024-01-20T03:55:48.942Z,3.10
2024-01-20T03:58:15.509Z,3.60
2024-01-20T04:00:44.013Z,3.30
2024-01-20T04:03:10.756Z,3.20
2024-01-20T04:05:39.871Z,3.50
2024-01-20T04:08:06.356Z,3.40
2024-01-20T04:10:32.991Z,3.20
2024-01-20T04:12:59.522Z,3.00
2024-01-20T04:15:26.201Z,3.80
2024-01-20T04:17:53.593Z,3.60
2024-01-20T04:20:20.384Z,3.40
2024-01-20T04:22:47.095Z,3.40
2024-01-20T04:25:13.730Z,3.30
2024-01-20T04:27:41.384Z,3.50
2024-01-20T04:30:09.673Z,3.40
2024-01-20T04:32:36.945Z,3.70
2024-01-20T04:35:05.203Z,3.40
2024-01-20T04:37:31.738Z,3.40
2024-01-20T04:39:59.798Z,3.20
2024-01-20T04:42:26.321Z,3.40
2024-01-20T04:44:52.963Z,3.40
2024-01-20T04:47:19.705Z,3.50
2024-01-20T04:49:46.256Z,3.20
2024-01-20T04:52:12.982Z,3.30
2024-01-20T04:54:39.522Z,3.40
2024-01-20T04:57:06.091Z,3.30
2024-01-20T04:59:32.678Z,3.20
2024-01-20T05:01:59.214Z,3.20
2024-01-20T05:04:25.757Z,2.90
2024-01-20T05:06:52.421Z,3.20
2024-01-20T05:09:19.186Z,3.20
2024-01-20T05:11:45.757Z,3.30
2024-01-20T05:14:12.398Z,3.10
2024-01-20T05:16:39.032Z,3.30
2024-01-20T05:19:05.946Z,3.00
2024-01-20T05:21:32.756Z,3.50
2024-01-20T05:23:59.795Z,2.80
2024-01-20T05:26:26.396Z,3.30
2024-01-20T05:28:52.932Z,3.40
2024-01-20T05:31:19.670Z,3.00
2024-01-20T05:33:46.432Z,3.00
2024-01-20T05:36:13.750Z,2.70
2024-01-20T05:38:40.602Z,3.50
2024-01-20T05:41:08.476Z,3.00
2024-01-20T05:43:34.999Z,3.20
2024-01-20T05:46:07.837Z,3.40
2024-01-20T05:48:35.475Z,3.40
2024-01-20T05:51:02.417Z,3.00
2024-01-20T05:53:29.231Z,3.20
2024-01-20T05:55:55.781Z,2.80
2024-01-20T05:58:22.704Z,3.00
2024-01-20T06:00:49.401Z,3.40
2024-01-20T06:03:16.099Z,3.20
2024-01-20T06:05:42.751Z,3.10
2024-01-20T06:08:09.685Z,2.70
2024-01-20T06:10:36.312Z,2.80
2024-01-20T06:13:02.939Z,3.40
2024-01-20T06:15:29.882Z,3.00
2024-01-20T06:17:56.594Z,3.40
2024-01-20T06:20:23.259Z,3.10
2024-01-20T06:22:49.705Z,3.30
2024-01-20T06:25:16.228Z,3.30
2024-01-20T06:27:43.063Z,3.10
2024-01-20T06:30:10.450Z,2.80
2024-01-20T06:32:37.092Z,3.10
2024-01-20T06:35:04.312Z,3.10
2024-01-20T06:37:31.047Z,3.10
2024-01-20T06:39:57.598Z,3.00
2024-01-20T06:42:24.108Z,3.00
2024-01-20T06:44:50.542Z,3.20
2024-01-20T06:47:17.182Z,3.30
2024-01-20T06:49:50.203Z,3.00
2024-01-20T06:52:17.315Z,2.80
2024-01-20T06:54:44.456Z,2.80
2024-01-20T06:57:11.365Z,3.00
2024-01-20T06:59:38.246Z,3.00
2024-01-20T07:02:04.746Z,3.20
2024-01-20T07:04:31.670Z,3.00
2024-01-20T07:06:58.353Z,3.00
2024-01-20T07:09:26.226Z,3.20
2024-01-20T07:11:56.226Z,2.80
2024-01-20T07:14:24.515Z,2.90
2024-01-20T07:16:51.246Z,2.70
2024-01-20T07:19:18.028Z,3.10
2024-01-20T07:21:44.522Z,3.30
2024-01-20T07:24:11.213Z,2.90
2024-01-20T07:26:37.899Z,3.10
2024-01-20T07:29:04.445Z,3.00
2024-01-20T07:31:30.971Z,2.60
2024-01-20T07:33:57.673Z,2.90
2024-01-20T07:36:24.483Z,3.00
2024-01-20T07:38:51.181Z,2.80
2024-01-20T07:41:19.053Z,3.10
2024-01-20T07:43:45.793Z,2.90
2024-01-20T07:46:13.359Z,2.80
2024-01-20T07:48:40.065Z,2.80
2024-01-20T07:51:06.928Z,2.80
2024-01-20T07:53:33.579Z,3.30
2024-01-20T07:56:00.120Z,2.60
2024-01-20T07:58:26.839Z,2.90
2024-01-20T08:00:53.474Z,2.90
2024-01-20T08:03:20.269Z,2.90
2024-01-20T08:05:47.243Z,3.20
2024-01-20T08:08:14.026Z,2.80
2024-01-20T08:10:40.740Z,3.00
2024-01-20T08:13:07.474Z,2.90
2024-01-20T08:15:34.096Z,2.90
2024-01-20T08:18:00.914Z,2.80
2024-01-20T08:20:28.204Z,2.80
2024-01-20T08:22:54.734Z,2.90
2024-01-20T08:25:21.266Z,2.90
2024-01-20T08:27:47.803Z,2.90
2024-01-20T08:30:15.338Z,2.80
2024-01-20T08:32:42.398Z,3.30
2024-01-20T08:35:10.684Z,3.00
2024-01-20T08:37:37.313Z,2.80
2024-01-20T08:40:04.488Z,2.70
2024-01-20T08:42:31.401Z,2.90
2024-01-20T08:44:58.281Z,2.80
2024-01-20T08:47:24.886Z,3.10
2024-01-20T08:49:52.562Z,3.10
2024-01-20T08:52:19.496Z,2.70
2024-01-20T08:54:46.127Z,2.60
2024-01-20T08:57:12.694Z,3.00
2024-01-20T08:59:39.708Z,2.70
2024-01-20T09:02:06.747Z,2.70
2024-01-20T09:04:33.287Z,2.90
2024-01-20T09:07:00.071Z,2.90
2024-01-20T09:09:26.800Z,3.00
2024-01-20T09:11:53.317Z,2.80
2024-01-20T09:14:19.856Z,2.70
2024-01-20T09:16:46.572Z,2.70
2024-01-20T09:19:13.229Z,2.90
2024-01-20T09:21:39.883Z,2.70
2024-01-20T09:24:07.036Z,2.60
2024-01-20T09:26:33.718Z,2.80
2024-01-20T09:29:01.069Z,2.40
2024-01-20T09:31:27.668Z,3.00
2024-01-20T09:33:54.326Z,2.90
2024-01-20T09:36:21.036Z,2.90
2024-01-20T09:38:47.607Z,2.60
2024-01-20T09:41:14.149Z,3.00
2024-01-20T09:43:40.831Z,2.90
2024-01-20T09:46:07.719Z,2.80
2024-01-20T09:48:34.506Z,2.70
2024-01-20T09:51:01.315Z,2.60
2024-01-20T09:53:27.831Z,2.80
2024-01-20T09:55:54.466Z,2.60
2024-01-20T09:58:21.511Z,3.00
2024-01-20T10:00:48.523Z,2.60
2024-01-20T10:03:15.944Z,2.90
2024-01-20T10:05:42.671Z,2.80
2024-01-20T10:08:09.604Z,2.90
2024-01-20T10:10:36.158Z,2.70
2024-01-20T10:13:03.476Z,2.80
2024-01-20T10:15:35.110Z,2.80
2024-01-20T10:18:09.673Z,2.40
2024-01-20T10:20:36.818Z,2.60
2024-01-20T10:23:04.977Z,2.60
2024-01-20T10:25:31.602Z,3.10
2024-01-20T10:27:59.575Z,2.60
2024-01-20T10:30:26.165Z,2.80
2024-01-20T10:33:04.052Z,2.70
2024-01-20T10:35:35.896Z,2.80
2024-01-20T10:38:03.339Z,2.90
2024-01-20T10:40:30.181Z,2.50
2024-01-20T10:43:07.329Z,2.80
2024-01-20T10:45:34.348Z,2.80
2024-01-20T10:48:18.449Z,2.80
2024-01-20T10:50:48.909Z,2.70
2024-01-20T10:53:15.420Z,2.90
2024-01-20T10:55:42.104Z,2.60
2024-01-20T10:58:08.792Z,2.60
2024-01-20T11:00:35.730Z,2.80
2024-01-20T11:03:02.551Z,2.70
2024-01-20T11:05:29.419Z,2.70
2024-01-20T11:07:57.808Z,2.60
2024-01-20T11:10:24.756Z,2.50
2024-01-20T11:13:03.990Z,2.40
2024-01-20T11:15:31.271Z,2.80
2024-01-20T11:17:58.624Z,2.40
2024-01-20T11:20:26.356Z,2.80
2024-01-20T11:22:53.504Z,2.90
2024-01-20T11:25:20.355Z,2.70
2024-01-20T11:27:52.011Z,2.70
2024-01-20T11:30:26.412Z,2.80
2024-01-20T11:32:53.927Z,2.60
2024-01-20T11:35:20.617Z,2.70
2024-01-20T11:37:47.154Z,2.50
2024-01-20T11:40:13.797Z,2.60
2024-01-20T11:42:40.341Z,2.80
2024-01-20T11:45:07.685Z,2.60
2024-01-20T11:47:35.247Z,2.60
2024-01-20T11:50:01.909Z,2.40
2024-01-20T11:52:28.911Z,2.50
2024-01-20T11:54:55.679Z,2.30
2024-01-20T11:57:32.400Z,2.60
2024-01-20T11:59:59.345Z,2.60
2024-01-20T12:02:26.422Z,2.60
2024-01-20T12:04:59.700Z,2.60
2024-01-20T12:07:29.078Z,2.40
2024-01-20T12:09:55.642Z,2.50
2024-01-20T12:12:23.654Z,2.80
2024-01-20T12:14:50.248Z,2.70
2024-01-20T12:17:16.884Z,3.10
2024-01-20T12:19:44.206Z,2.50
2024-01-20T12:22:12.790Z,3.00
2024-01-20T12:24:41.012Z,2.60
2024-01-20T12:27:07.562Z,2.60
2024-01-20T12:29:34.173Z,2.40
2024-01-20T12:32:00.801Z,2.80
2024-01-20T12:34:27.502Z,2.80
2024-01-20T12:36:54.820Z,2.70
2024-01-20T12:39:22.188Z,2.60
2024-01-20T12:41:49.187Z,2.40
2024-01-20T12:44:16.952Z,2.70
2024-01-20T12:46:43.673Z,2.60
2024-01-20T12:49:10.382Z,2.40
2024-01-20T12:51:37.213Z,2.60
2024-01-20T12:54:04.500Z,2.30
2024-01-20T12:56:31.270Z,2.70
2024-01-20T12:58:57.895Z,2.30
2024-01-20T13:01:26.488Z,2.30
2024-01-20T13:03:54.472Z,2.60
2024-01-20T13:06:21.450Z,2.60
2024-01-20T13:08:48.340Z,2.60
2024-01-20T13:11:14.872Z,2.50
2024-01-20T13:13:42.363Z,2.40
2024-01-20T13:16:09.485Z,2.60
2024-01-20T13:18:36.731Z,2.60
2024-01-20T13:21:04.023Z,2.60
2024-01-20T13:23:30.806Z,2.40
2024-01-20T13:25:57.650Z,2.40
2024-01-20T13:28:24.705Z,2.40
2024-01-20T13:30:54.086Z,2.60
2024-01-20T13:33:20.773Z,2.60
2024-01-20T13:35:47.466Z,2.70
2024-01-20T13:38:14.016Z,2.30
2024-01-20T13:40:40.947Z,2.30
2024-01-20T13:43:07.583Z,2.40
2024-01-20T13:45:34.955Z,2.60
2024-01-20T13:48:01.627Z,2.20
2024-01-20T13:50:28.629Z,2.60
2024-01-20T13:52:56.597Z,2.50
2024-01-20T13:55:23.231Z,2.50
2024-01-20T13:57:49.888Z,2.50
2024-01-20T14:00:17.074Z,2.30
2024-01-20T14:02:45.081Z,2.50
2024-01-20T14:05:14.377Z,2.50
2024-01-20T14:07:41.325Z,2.60
2024-01-20T14:10:09.099Z,2.40
2024-01-20T14:12:35.748Z,2.20
2024-01-20T14:15:02.974Z,2.60
2024-01-20T14:17:29.718Z,2.50
2024-01-20T14:19:56.472Z,2.30
2024-01-20T14:22:23.505Z,2.10
2024-01-20T14:24:51.465Z,2.60
2024-01-20T14:27:18.034Z,2.40
2024-01-20T14:29:44.537Z,2.20
2024-01-20T14:32:11.684Z,2.40
2024-01-20T14:34:38.384Z,2.80
2024-01-20T14:37:07.711Z,2.30
2024-01-20T14:39:35.206Z,2.40
2024-01-20T14:42:02.617Z,2.30
2024-01-20T14:44:29.525Z,2.30
2024-01-20T14:46:56.209Z,2.30
2024-01-20T14:49:23.466Z,2.40
2024-01-20T14:51:50.548Z,2.60
2024-01-20T14:54:17.551Z,2.30
2024-01-20T14:56:44.292Z,2.40
2024-01-20T14:59:10.950Z,2.10
2024-01-20T15:01:37.849Z,2.50
2024-01-20T15:04:05.465Z,2.20
2024-01-20T15:06:32.321Z,2.20
2024-01-20T15:08:59.347Z,2.20
2024-01-20T15:11:26.365Z,2.50
2024-01-20T15:13:52.905Z,2.30
2024-01-20T15:16:19.436Z,2.20
2024-01-20T15:18:46.031Z,2.60
2024-01-20T15:21:12.633Z,2.30
2024-01-20T15:23:39.349Z,2.40
2024-01-20T15:26:05.980Z,2.10
2024-01-20T15:28:32.716Z,2.50
2024-01-20T15:30:59.258Z,2.30
2024-01-20T15:33:25.989Z,2.50
2024-01-20T15:35:52.727Z,2.50
2024-01-20T15:38:19.376Z,2.30
2024-01-20T15:40:45.946Z,2.40
2024-01-20T15:43:12.537Z,2.10
2024-01-20T15:45:39.273Z,2.30
2024-01-20T15:48:06.256Z,2.20
2024-01-20T15:50:33.262Z,2.20
2024-01-20T15:52:59.903Z,2.20
2024-01-20T15:55:26.746Z,2.20
2024-01-20T15:57:53.381Z,2.30
2024-01-20T16:00:20.105Z,2.40
2024-01-20T16:02:47.271Z,2.30
2024-01-20T16:05:13.795Z,2.10
2024-01-20T16:07:40.438Z,2.30
2024-01-20T16:10:07.690Z,2.20
2024-01-20T16:12:34.752Z,1.90
2024-01-20T16:15:01.511Z,2.10
2024-01-20T16:17:28.631Z,2.00
2024-01-20T16:19:55.451Z,2.50
2024-01-20T16:22:21.990Z,2.10
2024-01-20T16:24:48.616Z,2.30
2024-01-20T16:27:15.287Z,2.40
2024-01-20T16:29:41.915Z,2.10
2024-01-20T16:32:10.183Z,2.30
2024-01-20T16:34:36.859Z,2.00
2024-01-20T16:37:04.994Z,2.30
2024-01-20T16:39:31.681Z,2.30
2024-01-20T16:41:58.767Z,2.20
2024-01-20T16:44:26.634Z,2.00
2024-01-20T16:46:53.576Z,2.10
2024-01-20T16:49:21.453Z,2.40
2024-01-20T16:51:48.320Z,2.30
2024-01-20T16:54:15.091Z,2.30
2024-01-20T16:56:41.871Z,2.40
2024-01-20T16:59:09.981Z,2.10
2024-01-20T17:01:37.837Z,1.90
2024-01-20T17:04:04.770Z,2.30
2024-01-20T17:06:33.669Z,2.30
2024-01-20T17:09:01.541Z,2.00
2024-01-20T17:11:28.246Z,2.40
2024-01-20T17:13:55.304Z,2.10
2024-01-20T17:16:22.054Z,1.90
2024-01-20T17:18:48.759Z,2.10
2024-01-20T17:21:16.937Z,2.40
2024-01-20T17:23:44.194Z,2.20
2024-01-20T17:26:11.747Z,2.00
2024-01-20T17:28:38.392Z,2.00
2024-01-20T17:31:06.040Z,2.10
2024-01-20T17:33:32.654Z,2.20
2024-01-20T17:35:59.535Z,2.20
2024-01-20T17:38:26.059Z,1.90
2024-01-20T17:40:52.898Z,2.00
2024-01-20T17:43:21.372Z,1.90
2024-01-20T17:45:51.357Z,1.70
2024-01-20T17:48:18.933Z,2.20
2024-01-20T17:50:45.582Z,1.90
2024-01-20T17:53:13.346Z,2.20
2024-01-20T17:55:41.312Z,2.20
2024-01-20T17:58:09.789Z,2.10
2024-01-20T18:00:36.855Z,2.20
2024-01-20T18:03:04.546Z,2.00
2024-01-20T18:05:31.205Z,1.80
2024-01-20T18:07:57.972Z,1.90
2024-01-20T18:10:24.510Z,1.90
2024-01-20T18:12:51.052Z,2.20
2024-01-20T18:15:17.704Z,2.00
2024-01-20T18:17:45.784Z,2.10
2024-01-20T18:20:13.728Z,2.10
2024-01-20T18:22:40.255Z,1.60
2024-01-20T18:25:07.801Z,2.10
2024-01-20T18:27:34.756Z,1.80
2024-01-20T18:30:01.732Z,2.10
2024-01-20T18:32:28.919Z,2.10
2024-01-20T18:34:55.899Z,1.90
2024-01-20T18:37:23.344Z,1.90
2024-01-20T18:39:49.886Z,2.10
2024-01-20T18:42:20.111Z,2.20
2024-01-20T18:44:48.179Z,2.10
2024-01-20T18:47:15.432Z,2.10
2024-01-20T18:49:42.156Z,2.00
2024-01-20T18:52:08.793Z,1.90
2024-01-20T18:54:37.904Z,1.80
2024-01-20T18:57:06.181Z,2.20
2024-01-20T18:59:32.896Z,2.00
2024-01-20T19:02:00.048Z,1.60
2024-01-20T19:04:27.779Z,2.00
2024-01-20T19:06:54.857Z,2.40
2024-01-20T19:09:21.404Z,2.00
2024-01-20T19:11:48.036Z,1.80
2024-01-20T19:14:14.893Z,2.40
2024-01-20T19:16:41.405Z,2.10
2024-01-20T19:19:08.330Z,1.90
2024-01-20T19:21:35.213Z,1.90
2024-01-20T19:24:03.808Z,2.00
2024-01-20T19:26:30.512Z,2.00
2024-01-20T19:28:57.149Z,2.10
2024-01-20T19:31:23.684Z,1.90
2024-01-20T19:33:53.809Z,1.70
2024-01-20T19:36:21.233Z,2.00
2024-01-20T19:38:48.323Z,1.90
2024-01-20T19:41:15.861Z,2.00
2024-01-20T19:43:42.498Z,2.00
2024-01-20T19:46:09.033Z,1.90
2024-01-20T19:48:35.660Z,2.10
2024-01-20T19:51:02.307Z,1.70
2024-01-20T19:53:29.051Z,1.90
2024-01-20T19:55:55.683Z,1.80
2024-01-20T19:58:22.419Z,2.10
2024-01-20T20:00:50.716Z,2.00
2024-01-20T20:03:17.848Z,2.10
2024-01-20T20:05:45.313Z,1.70
2024-01-20T20:08:12.860Z,2.10
2024-01-20T20:10:39.512Z,2.10
2024-01-20T20:13:06.158Z,2.00
2024-01-20T20:15:32.829Z,2.10
2024-01-20T20:17:59.888Z,1.80
2024-01-20T20:20:26.755Z,1.80
2024-01-20T20:22:53.392Z,1.80
2024-01-20T20:25:19.925Z,1.70
2024-01-20T20:27:46.700Z,2.00
2024-01-20T20:30:14.898Z,1.90
2024-01-20T20:32:41.731Z,2.20
2024-01-20T20:35:08.929Z,1.80
2024-01-20T20:37:35.464Z,1.70
2024-01-20T20:40:03.842Z,1.70
2024-01-20T20:42:30.791Z,1.70
2024-01-20T20:44:57.529Z,2.00
2024-01-20T20:47:24.056Z,1.80
2024-01-20T20:49:51.147Z,2.10
2024-01-20T20:52:18.056Z,1.70
2024-01-20T20:54:44.771Z,2.00
2024-01-20T20:57:11.573Z,1.90
2024-01-20T20:59:39.396Z,2.00
2024-01-20T21:02:07.884Z,2.20
2024-01-20T21:04:34.559Z,2.00
2024-01-20T21:07:01.370Z,1.90
2024-01-20T21:09:28.142Z,1.90
2024-01-20T21:11:55.028Z,1.80
2024-01-20T21:14:21.888Z,1.80
2024-01-20T21:16:48.415Z,1.90
2024-01-20T21:19:15.334Z,1.70
2024-01-20T21:21:42.125Z,2.00
2024-01-20T21:24:09.570Z,2.00
2024-01-20T21:26:36.401Z,2.00
2024-01-20T21:29:03.329Z,2.10
2024-01-20T21:31:30.733Z,1.90
2024-01-20T21:33:57.413Z,2.10
2024-01-20T21:36:25.206Z,2.00
2024-01-20T21:38:51.816Z,1.90
2024-01-20T21:41:19.684Z,1.60
2024-01-20T21:43:46.228Z,2.10
2024-01-20T21:46:12.752Z,1.60
2024-01-20T21:48:39.944Z,1.70
2024-01-20T21:51:06.664Z,1.90
2024-01-20T21:53:33.271Z,1.70
2024-01-20T21:55:59.808Z,1.90
2024-01-20T21:58:26.858Z,2.10
2024-01-20T22:00:53.698Z,1.90
2024-01-20T22:03:20.486Z,1.70
2024-01-20T22:05:47.208Z,1.90
2024-01-20T22:08:13.711Z,1.70
2024-01-20T22:10:40.344Z,2.10
2024-01-20T22:13:07.100Z,1.90
2024-01-20T22:15:33.972Z,1.70
2024-01-20T22:18:01.056Z,1.70
2024-01-20T22:20:27.708Z,2.10
2024-01-20T22:22:54.365Z,1.90
2024-01-20T22:25:21.103Z,2.00
2024-01-20T22:27:47.693Z,1.90
2024-01-20T22:30:15.231Z,1.90
2024-01-20T22:32:42.089Z,1.90
2024-01-20T22:35:08.726Z,1.90
2024-01-20T22:37:35.507Z,2.00
2024-01-20T22:40:03.071Z,1.90
2024-01-20T22:42:30.730Z,1.80
2024-01-20T22:44:57.236Z,1.90
2024-01-20T22:47:23.852Z,1.80
2024-01-20T22:49:50.758Z,1.90
2024-01-20T22:52:17.560Z,1.90
2024-01-20T22:54:45.313Z,1.80
2024-01-20T22:57:12.187Z,1.80
2024-01-20T22:59:38.965Z,1.80
2024-01-20T23:02:05.537Z,2.10
2024-01-20T23:04:32.820Z,2.10
2024-01-20T23:06:59.697Z,1.90
2024-01-20T23:09:26.918Z,1.80
2024-01-20T23:11:53.730Z,1.80
2024-01-20T23:14:20.472Z,1.80
2024-01-20T23:16:47.358Z,2.10
2024-01-20T23:19:14.227Z,2.20
2024-01-20T23:21:41.012Z,2.00
2024-01-20T23:24:07.549Z,1.80
2024-01-20T23:26:34.053Z,1.90
2024-01-20T23:29:00.599Z,1.80
2024-01-20T23:31:27.277Z,1.90
2024-01-20T23:33:54.217Z,1.80
2024-01-20T23:36:21.045Z,1.90
2024-01-20T23:38:47.544Z,2.00
2024-01-20T23:41:14.181Z,1.90
2024-01-20T23:43:41.029Z,1.80
2024-01-20T23:46:10.476Z,1.90
2024-01-20T23:48:37.107Z,2.00
2024-01-20T23:51:04.629Z,1.80
2024-01-20T23:53:31.265Z,1.70
2024-01-20T23:55:57.747Z,2.00
2024-01-20T23:58:24.732Z,2.30
